Lyndon, Illinois
Current Conditions -  °F | °C
As of 4:15 PM on Friday 31 Oct 2014 (Local Time) from KSQI Reporting Station
Scattered Clouds Scattered Clouds  
Wind Chill: 35°   Ceiling: Unl
Heat Index: 43°   Visibility: 10mi
Dew Point: 19°   Wind: 16mph
Humidity: 39%   Direction: 10°N
Pressure: 30.33"   Gusts: 24mph
Location:  41.72°N, 89.93°W
Report Text: KSQI 312115Z AUTO 01014G21KT 10SM SCT050 06/M07 A3033 RMK AO1
Loading
Personal Weather Stations






























Interactive Weather Map
Tropical Storm Tracking
New forecast layout! Learn more

10-Day Weather Forecast

Advertisements
Track Severe Weather on mobile